Westminster, CO

1:29 PM MDT on April 27, 2015 (GMT -0600)
Buckley Air Force Base | | Change Station
CLOSE
Current Station
Airport
Location: Aurora,
Elevation: 5663 ft
Nearby Weather Stations

Elev 5663 ft 39.71 °N, 104.76 °W | Updated 31 minutes ago

Overcast
Overcast
41 °F
Feels Like 36 °F
N
7
Wind Variable Wind from North

Today
High -- | Low -- °F
--% Chance of Precip.
Yesterday
High -- | Low -- °F
Precip. -- in
6:05 AM 7:50 PM
Waxing Gibbous, 67% visible
Pressure 30.27 in
Visibility 10.0 miles
Clouds Mostly Cloudy 600 ft
Overcast 1200 ft
Windchill 36 °F
Dew Point 41 °F
Humidity 100%
Rainfall 0.08 in
Snow Depth Not available.
UV 3 out of 12
Pollen 3.10 out of 12
Air Quality Not available.
Flu Activity Sporadic
METAR KBKF 271858Z 35006KT 10SM BKN006 OVC012 05/05 A3028 RMK AO2A 4 SLP249 T00480048

More Conditions Fewer Conditions

Pressure 30.27 in
Visibility 10.0 miles
Clouds Mostly Cloudy 600 ft
Overcast 1200 ft
Windchill 36 °F
Dew Point 41 °F
Humidity 100%
Rainfall 0.08 in
Snow Depth Not available.
UV 3 out of 12
Pollen 3.10 out of 12
Air Quality Not available.
Flu Activity Sporadic
METAR KBKF 271858Z 35006KT 10SM BKN006 OVC012 05/05 A3028 RMK AO2A 4 SLP249 T00480048

More Conditions Fewer Conditions

10-Day Weather Forecast

Almanac

Astronomy

Apr. 27, 2015 Rise Set
Actual Time
Civil Twilight
Nautical Twilight
Astronomical Twilight
Moon
Length of Visible Light
Length of Day
Tomorrow will be .
, % of the Moon is Illuminated

Today's Extremes

State Highs State Lows

Community

WunderPhotos

Upload Photos

1,817,413 photos uploaded!

WunderBlogs® & News

Nearby

Air Quality

  Air Quality AQ Index Pollutant
Not available.

Snow Depth

Station Depth Elevation

Earthquake Activity

City Distance Mag. Time & Date
Minimum magnitude displayed is 2.5.

Coastal Water Temperatures

Place Temperature

Stations

Nearby Weather Stations

Station Location Temp. Windchill Dew Point Humidity Wind Precip. Elev Updated Type